createdAt,value
2023-03-16T00:01:30.847Z,53.37
2023-03-16T00:03:33.445Z,52.92
2023-03-16T00:05:35.056Z,53.23
2023-03-16T00:07:36.857Z,52.80
2023-03-16T00:09:38.909Z,53.74
2023-03-16T00:11:42.309Z,52.99
2023-03-16T00:13:44.012Z,53.29
2023-03-16T00:15:50.198Z,52.60
2023-03-16T00:17:51.745Z,53.00
2023-03-16T00:19:55.667Z,53.44
2023-03-16T00:22:03.423Z,53.49
2023-03-16T00:24:05.580Z,53.54
2023-03-16T00:26:09.494Z,53.33
2023-03-16T00:28:12.401Z,53.88
2023-03-16T00:30:14.210Z,53.45
2023-03-16T00:32:17.828Z,53.67
2023-03-16T00:34:19.392Z,53.68
2023-03-16T00:36:21.000Z,53.57
2023-03-16T00:38:22.614Z,53.47
2023-03-16T00:40:24.243Z,53.28
2023-03-16T00:42:28.667Z,53.15
2023-03-16T00:44:31.664Z,53.49
2023-03-16T00:46:33.291Z,54.11
2023-03-16T00:48:35.928Z,53.46
2023-03-16T00:50:37.715Z,53.59
2023-03-16T00:52:39.360Z,52.60
2023-03-16T00:54:42.500Z,52.57
2023-03-16T00:56:44.067Z,52.50
2023-03-16T00:58:45.705Z,53.02
2023-03-16T01:00:48.822Z,53.30
2023-03-16T01:02:50.534Z,53.02
2023-03-16T01:04:53.337Z,53.19
2023-03-16T01:06:54.850Z,52.29
2023-03-16T01:08:56.448Z,52.28
2023-03-16T01:11:02.593Z,52.26
2023-03-16T01:13:04.342Z,52.54
2023-03-16T01:15:07.153Z,53.02
2023-03-16T01:17:10.521Z,52.96
2023-03-16T01:19:12.677Z,53.15
2023-03-16T01:21:14.690Z,53.54
2023-03-16T01:23:16.593Z,53.34
2023-03-16T01:25:18.263Z,52.80
2023-03-16T01:27:19.837Z,53.24
2023-03-16T01:29:21.457Z,53.13
2023-03-16T01:31:23.168Z,53.35
2023-03-16T01:33:28.352Z,53.46
2023-03-16T01:35:29.939Z,53.27
2023-03-16T01:37:31.534Z,53.46
2023-03-16T01:39:33.078Z,53.90
2023-03-16T01:41:34.653Z,53.44
2023-03-16T01:43:38.778Z,53.45
2023-03-16T01:46:16.226Z,53.74
2023-03-16T01:48:18.291Z,54.18
2023-03-16T01:50:21.253Z,53.98
2023-03-16T01:52:27.449Z,53.62
2023-03-16T01:54:33.033Z,53.85
2023-03-16T01:56:39.694Z,54.16
2023-03-16T01:58:43.977Z,54.21
2023-03-16T02:00:45.754Z,53.39
2023-03-16T02:02:51.255Z,54.01
2023-03-16T02:05:01.136Z,53.65
2023-03-16T02:07:06.630Z,53.84
2023-03-16T02:09:08.951Z,53.97
2023-03-16T02:11:11.237Z,53.84
2023-03-16T02:13:12.798Z,53.94
2023-03-16T02:15:14.949Z,53.91
2023-03-16T02:17:19.399Z,54.13
2023-03-16T02:19:34.990Z,54.43
2023-03-16T02:21:47.410Z,54.17
2023-03-16T02:23:50.595Z,53.80
2023-03-16T02:26:00.919Z,53.71
2023-03-16T02:28:13.084Z,52.92
2023-03-16T02:30:17.904Z,52.81
2023-03-16T02:32:20.661Z,52.45
2023-03-16T02:34:23.214Z,52.04
2023-03-16T02:36:25.048Z,51.91
2023-03-16T02:38:26.688Z,51.72
2023-03-16T02:40:31.065Z,51.71
2023-03-16T02:42:32.948Z,52.10
2023-03-16T02:44:37.111Z,52.39
2023-03-16T02:46:40.908Z,52.36
2023-03-16T02:48:47.688Z,53.05
2023-03-16T02:50:51.871Z,53.16
2023-03-16T02:52:53.434Z,53.04
2023-03-16T02:54:54.969Z,53.35
2023-03-16T02:56:56.536Z,53.49
2023-03-16T02:58:58.123Z,53.22
2023-03-16T03:01:00.472Z,53.03
2023-03-16T03:03:03.571Z,53.14
2023-03-16T03:05:06.354Z,53.47
2023-03-16T03:07:08.192Z,53.56
2023-03-16T03:09:10.517Z,53.77
2023-03-16T03:11:12.131Z,53.59
2023-03-16T03:13:13.720Z,53.33
2023-03-16T03:15:15.352Z,53.06
2023-03-16T03:17:16.965Z,53.97
2023-03-16T03:19:20.002Z,53.54
2023-03-16T03:21:22.010Z,53.28
2023-03-16T03:23:23.623Z,53.89
2023-03-16T03:25:25.263Z,53.76
2023-03-16T03:27:26.779Z,53.48
2023-03-16T03:29:28.388Z,53.60
2023-03-16T03:31:30.002Z,52.83
2023-03-16T03:33:31.552Z,52.00
2023-03-16T03:35:34.500Z,52.65
2023-03-16T03:37:36.285Z,52.77
2023-03-16T03:39:37.846Z,52.97
2023-03-16T03:41:39.394Z,53.81
2023-03-16T03:43:41.001Z,53.63
2023-03-16T03:45:42.525Z,53.30
2023-03-16T03:47:44.360Z,53.18
2023-03-16T03:49:45.940Z,53.27
2023-03-16T03:51:48.912Z,53.32
2023-03-16T03:53:50.549Z,53.44
2023-03-16T03:55:52.108Z,53.25
2023-03-16T03:57:53.829Z,53.80
2023-03-16T03:59:55.426Z,53.41
2023-03-16T04:01:57.218Z,53.66
2023-03-16T04:03:59.067Z,53.54
2023-03-16T04:06:00.595Z,53.05
2023-03-16T04:08:03.719Z,53.42
2023-03-16T04:10:06.828Z,53.49
2023-03-16T04:12:08.918Z,53.70
2023-03-16T04:14:10.495Z,53.51
2023-03-16T04:16:12.394Z,54.01
2023-03-16T04:18:14.006Z,53.65
2023-03-16T04:20:16.414Z,53.41
2023-03-16T04:22:18.004Z,53.71
2023-03-16T04:24:20.993Z,53.85
2023-03-16T04:26:22.647Z,53.39
2023-03-16T04:28:24.301Z,53.11
2023-03-16T04:30:25.966Z,53.59
2023-03-16T04:32:27.703Z,53.50
2023-03-16T04:34:29.504Z,53.56
2023-03-16T04:36:31.063Z,53.67
2023-03-16T04:38:33.540Z,53.77
2023-03-16T04:40:36.478Z,53.83
2023-03-16T04:42:38.111Z,54.09
2023-03-16T04:44:39.751Z,53.77
2023-03-16T04:46:41.430Z,53.45
2023-03-16T04:48:42.969Z,53.41
2023-03-16T04:50:44.935Z,53.71
2023-03-16T04:52:46.504Z,53.75
2023-03-16T04:54:48.082Z,53.85
2023-03-16T04:56:51.021Z,53.92
2023-03-16T04:58:52.690Z,53.80
2023-03-16T05:00:55.261Z,54.23
2023-03-16T05:02:56.835Z,54.67
2023-03-16T05:04:58.365Z,54.16
2023-03-16T05:07:00.056Z,54.50
2023-03-16T05:09:01.744Z,54.29
2023-03-16T05:11:03.461Z,54.20
2023-03-16T05:13:06.797Z,54.42
2023-03-16T05:15:09.392Z,54.08
2023-03-16T05:17:15.457Z,54.62
2023-03-16T05:19:17.333Z,54.60
2023-03-16T05:21:19.075Z,54.70
2023-03-16T05:23:21.798Z,54.48
2023-03-16T05:25:23.397Z,54.64
2023-03-16T05:27:24.998Z,54.44
2023-03-16T05:29:27.906Z,54.09
2023-03-16T05:31:29.677Z,53.97
2023-03-16T05:33:31.267Z,54.00
2023-03-16T05:35:32.864Z,54.11
2023-03-16T05:37:34.647Z,54.59
2023-03-16T05:39:36.411Z,54.20
2023-03-16T05:41:37.980Z,53.80
2023-03-16T05:43:39.602Z,54.48
2023-03-16T05:45:42.539Z,54.38
2023-03-16T05:47:44.539Z,55.12
2023-03-16T05:49:46.166Z,56.03
2023-03-16T05:51:47.942Z,56.68
2023-03-16T05:53:49.537Z,57.53
2023-03-16T05:55:52.008Z,57.33
2023-03-16T05:57:53.682Z,56.61
2023-03-16T05:59:55.315Z,57.29
2023-03-16T06:01:58.255Z,57.09
2023-03-16T06:03:59.980Z,57.08
2023-03-16T06:06:01.580Z,57.16
2023-03-16T06:08:03.385Z,57.44
2023-03-16T06:10:06.256Z,57.96
2023-03-16T06:12:08.094Z,57.96
2023-03-16T06:14:09.618Z,57.90
2023-03-16T06:16:11.461Z,57.93
2023-03-16T06:18:14.471Z,58.12
2023-03-16T06:20:16.104Z,57.91
2023-03-16T06:22:18.026Z,58.58
2023-03-16T06:24:19.808Z,59.14
2023-03-16T06:26:21.357Z,59.43
2023-03-16T06:28:23.364Z,59.63
2023-03-16T06:30:25.022Z,58.74
2023-03-16T06:32:26.716Z,59.32
2023-03-16T06:34:29.888Z,59.83
2023-03-16T06:36:31.464Z,59.98
2023-03-16T06:38:33.103Z,59.92
2023-03-16T06:40:34.700Z,59.91
2023-03-16T06:42:36.306Z,60.02
2023-03-16T06:44:37.868Z,60.27
2023-03-16T06:46:39.473Z,60.29
2023-03-16T06:48:43.887Z,60.63
2023-03-16T06:50:46.811Z,60.07
2023-03-16T06:52:48.761Z,59.83
2023-03-16T06:54:50.361Z,60.43
2023-03-16T06:56:51.945Z,60.48
2023-03-16T06:58:53.744Z,60.68
2023-03-16T07:00:55.286Z,60.40
2023-03-16T07:02:58.415Z,61.05
2023-03-16T07:05:01.791Z,60.88
2023-03-16T07:07:04.649Z,60.73
2023-03-16T07:09:06.349Z,60.74
2023-03-16T07:11:08.498Z,60.39
2023-03-16T07:13:10.072Z,60.41
2023-03-16T07:15:12.833Z,60.53
2023-03-16T07:17:14.442Z,59.82
2023-03-16T07:19:16.018Z,59.69
2023-03-16T07:21:18.433Z,59.55
2023-03-16T07:23:21.514Z,59.39
2023-03-16T07:25:23.392Z,60.03
2023-03-16T07:27:25.055Z,59.44
2023-03-16T07:29:26.635Z,60.14
2023-03-16T07:31:28.217Z,59.77
2023-03-16T07:33:29.917Z,60.04
2023-03-16T07:35:31.833Z,60.07
2023-03-16T07:37:33.406Z,59.52
2023-03-16T07:39:36.858Z,59.31
2023-03-16T07:41:38.419Z,58.63
2023-03-16T07:43:40.003Z,58.81
2023-03-16T07:45:41.981Z,58.07
2023-03-16T07:47:43.833Z,57.59
2023-03-16T07:49:45.757Z,58.05
2023-03-16T07:51:47.386Z,57.28
2023-03-16T07:53:49.057Z,57.13
2023-03-16T07:55:51.927Z,57.10
2023-03-16T07:57:53.521Z,56.56
2023-03-16T07:59:55.114Z,55.84
2023-03-16T08:01:56.707Z,55.57
2023-03-16T08:03:58.348Z,55.28
2023-03-16T08:05:59.958Z,56.24
2023-03-16T08:08:01.460Z,55.41
2023-03-16T08:10:03.825Z,55.35
2023-03-16T08:12:08.854Z,55.26
2023-03-16T08:14:10.493Z,53.13
2023-03-16T08:16:12.152Z,53.02
2023-03-16T08:18:14.011Z,50.88
2023-03-16T08:20:15.510Z,51.21
2023-03-16T08:22:17.070Z,51.85
2023-03-16T08:24:18.802Z,50.53
2023-03-16T08:26:21.665Z,49.95
2023-03-16T08:28:25.043Z,50.80
2023-03-16T08:30:27.064Z,49.53
2023-03-16T08:32:28.796Z,48.83
2023-03-16T08:34:30.421Z,49.54
2023-03-16T08:36:32.091Z,48.16
2023-03-16T08:38:33.871Z,48.01
2023-03-16T08:40:35.481Z,48.42
2023-03-16T08:42:37.275Z,47.50
2023-03-16T08:44:40.177Z,47.63
2023-03-16T08:46:41.791Z,47.18
2023-03-16T08:48:43.432Z,47.29
2023-03-16T08:50:44.976Z,45.61
2023-03-16T08:52:49.511Z,44.87
2023-03-16T08:55:02.318Z,44.82
2023-03-16T08:57:05.199Z,45.13
2023-03-16T08:59:09.015Z,44.97
2023-03-16T09:01:16.990Z,45.72
2023-03-16T09:03:18.504Z,45.08
2023-03-16T09:05:20.079Z,45.37
2023-03-16T09:07:21.887Z,44.80
2023-03-16T09:09:23.464Z,44.17
2023-03-16T09:11:25.114Z,44.13
2023-03-16T09:13:30.174Z,43.35
2023-03-16T09:15:31.997Z,42.75
2023-03-16T09:17:35.196Z,43.40
2023-03-16T09:19:50.718Z,44.05
2023-03-16T09:21:58.965Z,44.04
2023-03-16T09:24:01.504Z,43.11
2023-03-16T09:26:05.194Z,43.33
2023-03-16T09:28:06.846Z,43.60
2023-03-16T09:30:10.368Z,42.99
2023-03-16T09:32:12.770Z,42.83
2023-03-16T09:34:15.815Z,43.03
2023-03-16T09:36:17.447Z,43.50
2023-03-16T09:38:19.841Z,42.13
2023-03-16T09:40:24.253Z,41.09
2023-03-16T09:42:33.310Z,41.03
2023-03-16T09:44:45.112Z,41.00
2023-03-16T09:46:48.722Z,40.88
2023-03-16T09:48:50.447Z,39.20
2023-03-16T09:50:55.139Z,39.79
2023-03-16T09:53:03.885Z,40.20
2023-03-16T09:55:12.302Z,40.21
2023-03-16T09:57:24.047Z,39.43
2023-03-16T09:59:26.061Z,39.33
2023-03-16T10:01:37.537Z,40.17
2023-03-16T10:04:04.194Z,38.95
2023-03-16T10:06:12.150Z,40.45
2023-03-16T10:08:15.903Z,38.97
2023-03-16T10:10:26.883Z,38.60
2023-03-16T10:12:34.281Z,37.90
2023-03-16T10:14:44.208Z,38.08
2023-03-16T10:16:49.815Z,37.40
2023-03-16T10:19:02.209Z,38.21
2023-03-16T10:21:05.223Z,37.87
2023-03-16T10:23:17.017Z,36.12
2023-03-16T10:25:23.716Z,37.34
2023-03-16T10:27:30.076Z,37.49
2023-03-16T10:29:36.107Z,38.13
2023-03-16T10:31:39.530Z,37.05
2023-03-16T10:33:41.178Z,36.52
2023-03-16T10:35:47.184Z,35.71
2023-03-16T10:37:48.979Z,37.17
2023-03-16T10:39:52.122Z,37.11
2023-03-16T10:41:57.672Z,36.69
2023-03-16T10:44:01.058Z,36.98
2023-03-16T10:46:02.845Z,35.22
2023-03-16T10:48:09.647Z,35.22
2023-03-16T10:50:13.008Z,33.88
2023-03-16T10:52:20.493Z,33.65
2023-03-16T10:54:28.492Z,32.74
2023-03-16T10:56:34.565Z,32.30
2023-03-16T10:58:40.047Z,31.77
2023-03-16T11:00:43.026Z,34.51
2023-03-16T11:02:44.616Z,33.43
2023-03-16T11:04:46.314Z,31.80
2023-03-16T11:06:51.867Z,31.80
2023-03-16T11:08:54.169Z,31.21
2023-03-16T11:11:00.026Z,30.65
2023-03-16T11:13:09.780Z,30.58
2023-03-16T11:15:25.259Z,30.00
2023-03-16T11:17:34.855Z,29.75
2023-03-16T11:19:50.005Z,29.46
2023-03-16T11:22:02.024Z,28.68
2023-03-16T11:24:05.804Z,28.51
2023-03-16T11:26:16.300Z,27.82
2023-03-16T11:28:28.085Z,28.81
2023-03-16T11:30:34.592Z,27.71
2023-03-16T11:32:38.790Z,28.56
2023-03-16T11:34:41.279Z,29.43
2023-03-16T11:36:49.992Z,28.02
2023-03-16T11:39:00.362Z,28.29
2023-03-16T11:41:03.999Z,28.64
2023-03-16T11:43:17.244Z,28.88
2023-03-16T11:45:28.661Z,28.02
2023-03-16T11:48:02.059Z,29.02
2023-03-16T11:50:12.958Z,27.85
2023-03-16T11:52:22.959Z,28.85
2023-03-16T11:54:52.555Z,29.23
2023-03-16T11:57:00.594Z,29.09
2023-03-16T11:59:25.646Z,30.52
2023-03-16T12:01:50.568Z,29.91
2023-03-16T12:04:24.814Z,31.87
2023-03-16T12:06:44.132Z,31.26
2023-03-16T12:09:01.275Z,32.04
2023-03-16T12:11:05.354Z,32.30
2023-03-16T12:13:24.296Z,32.44
2023-03-16T12:15:34.284Z,31.94
2023-03-16T12:17:37.974Z,31.56
2023-03-16T12:19:45.730Z,31.33
2023-03-16T12:22:01.341Z,29.79
2023-03-16T12:24:06.376Z,28.52
2023-03-16T12:26:08.429Z,28.28
2023-03-16T12:28:17.496Z,27.50
2023-03-16T12:30:29.008Z,27.73
2023-03-16T12:32:41.885Z,27.31
2023-03-16T12:34:51.122Z,27.96
2023-03-16T12:37:13.630Z,27.34
2023-03-16T12:39:23.121Z,28.20
2023-03-16T12:41:33.036Z,29.24
2023-03-16T12:43:49.589Z,29.01
2023-03-16T12:45:59.550Z,29.39
2023-03-16T12:48:12.131Z,29.37
2023-03-16T12:50:16.965Z,29.50
2023-03-16T12:52:18.877Z,30.35
2023-03-16T12:54:22.408Z,30.81
2023-03-16T12:56:28.464Z,30.30
2023-03-16T12:58:30.231Z,30.76
2023-03-16T13:00:36.144Z,30.31
2023-03-16T13:02:42.035Z,31.00
2023-03-16T13:04:49.717Z,32.07
2023-03-16T13:07:02.741Z,31.29
2023-03-16T13:09:06.582Z,31.88
2023-03-16T13:11:10.279Z,31.53
2023-03-16T13:13:14.027Z,31.02
2023-03-16T13:15:27.012Z,31.00
2023-03-16T13:17:31.250Z,30.86
2023-03-16T13:19:33.603Z,32.56
2023-03-16T13:21:38.836Z,32.86
2023-03-16T13:23:53.757Z,32.08
2023-03-16T13:26:02.741Z,32.57
2023-03-16T13:28:08.779Z,32.59
2023-03-16T13:30:19.684Z,32.80
2023-03-16T13:32:22.592Z,33.00
2023-03-16T13:34:28.530Z,33.69
2023-03-16T13:36:32.264Z,32.73
2023-03-16T13:38:35.144Z,33.62
2023-03-16T13:40:45.689Z,32.89
2023-03-16T13:42:49.029Z,33.28
2023-03-16T13:44:53.177Z,33.50
2023-03-16T13:46:54.996Z,33.44
2023-03-16T13:48:58.627Z,33.58
2023-03-16T13:51:00.472Z,33.07
2023-03-16T13:53:04.722Z,32.60
2023-03-16T13:55:15.961Z,32.32
2023-03-16T13:57:20.796Z,32.69
2023-03-16T13:59:23.209Z,33.85
2023-03-16T14:01:28.143Z,33.31
2023-03-16T14:03:35.228Z,33.08
2023-03-16T14:05:38.642Z,33.15
2023-03-16T14:07:40.351Z,32.71
2023-03-16T14:09:41.998Z,33.13
2023-03-16T14:11:45.121Z,33.22
2023-03-16T14:13:54.424Z,33.48
2023-03-16T14:15:59.151Z,33.07
2023-03-16T14:18:15.856Z,33.25
2023-03-16T14:20:21.053Z,33.18
2023-03-16T14:22:29.181Z,32.71
2023-03-16T14:24:34.280Z,33.48
2023-03-16T14:26:40.771Z,33.52
2023-03-16T14:28:55.006Z,32.98
2023-03-16T14:31:03.590Z,33.77
2023-03-16T14:33:06.884Z,33.28
2023-03-16T14:35:15.580Z,33.53
2023-03-16T14:37:17.596Z,33.74
2023-03-16T14:39:21.088Z,33.79
2023-03-16T14:41:25.613Z,34.44
2023-03-16T14:43:30.075Z,34.85
2023-03-16T14:45:34.739Z,35.55
2023-03-16T14:47:41.351Z,35.35
2023-03-16T14:49:43.567Z,34.41
2023-03-16T14:51:46.895Z,33.95
2023-03-16T14:53:48.436Z,34.54
2023-03-16T14:55:50.274Z,33.54
2023-03-16T14:57:51.891Z,33.50
2023-03-16T14:59:53.999Z,33.89
2023-03-16T15:01:57.632Z,34.17
2023-03-16T15:03:59.241Z,33.93
2023-03-16T15:06:01.807Z,34.27
2023-03-16T15:08:05.764Z,34.30
2023-03-16T15:10:20.195Z,34.00
2023-03-16T15:12:22.690Z,33.79
2023-03-16T15:14:24.264Z,34.25
2023-03-16T15:16:25.979Z,33.70
2023-03-16T15:18:28.977Z,33.82
2023-03-16T15:20:34.584Z,33.61
2023-03-16T15:22:38.183Z,33.03
2023-03-16T15:24:39.993Z,32.92
2023-03-16T15:26:41.652Z,33.52
2023-03-16T15:28:43.325Z,32.49
2023-03-16T15:30:46.858Z,32.86
2023-03-16T15:32:48.708Z,33.17
2023-03-16T15:34:51.683Z,33.14
2023-03-16T15:36:53.222Z,33.19
2023-03-16T15:38:55.100Z,33.30
2023-03-16T15:40:56.947Z,33.30
2023-03-16T15:42:58.641Z,33.04
2023-03-16T15:45:00.169Z,33.20
2023-03-16T15:47:01.845Z,33.24
2023-03-16T15:49:03.458Z,34.27
2023-03-16T15:51:13.792Z,33.89
2023-03-16T15:53:30.422Z,34.09
2023-03-16T15:55:36.100Z,34.00
2023-03-16T15:57:37.671Z,34.32
2023-03-16T15:59:40.097Z,33.88
2023-03-16T16:01:44.182Z,34.21
2023-03-16T16:03:45.729Z,33.56
2023-03-16T16:05:47.633Z,33.32
2023-03-16T16:07:50.574Z,33.84
2023-03-16T16:09:52.155Z,34.33
2023-03-16T16:11:53.781Z,34.50
2023-03-16T16:13:56.917Z,34.97
2023-03-16T16:15:58.741Z,34.47
2023-03-16T16:18:21.238Z,34.66
2023-03-16T16:20:26.119Z,33.88
2023-03-16T16:22:27.645Z,34.06
2023-03-16T16:24:30.674Z,34.16
2023-03-16T16:26:48.964Z,34.71
2023-03-16T16:28:51.799Z,34.28
2023-03-16T16:30:53.664Z,34.59
2023-03-16T16:32:57.583Z,35.41
2023-03-16T16:35:04.523Z,35.07
2023-03-16T16:37:09.506Z,34.89
2023-03-16T16:39:12.117Z,35.06
2023-03-16T16:41:31.594Z,35.16
2023-03-16T16:43:37.473Z,35.83
2023-03-16T16:45:39.066Z,35.62
2023-03-16T16:47:40.706Z,36.22
2023-03-16T16:49:42.306Z,35.64
2023-03-16T16:51:43.983Z,35.56
2023-03-16T16:53:46.302Z,35.91
2023-03-16T16:55:47.915Z,35.82
2023-03-16T16:57:54.055Z,36.16
2023-03-16T16:59:56.742Z,36.39
2023-03-16T17:02:00.441Z,36.55
2023-03-16T17:04:02.963Z,36.20
2023-03-16T17:06:05.118Z,36.19
2023-03-16T17:08:06.705Z,36.60
2023-03-16T17:10:16.025Z,36.52
2023-03-16T17:12:21.487Z,36.56
2023-03-16T17:14:25.749Z,36.14
2023-03-16T17:16:29.787Z,36.17
2023-03-16T17:18:31.797Z,36.30
2023-03-16T17:20:33.426Z,36.57
2023-03-16T17:22:35.105Z,36.52
2023-03-16T17:24:36.667Z,36.54
2023-03-16T17:26:43.062Z,36.80
2023-03-16T17:28:47.131Z,36.22
2023-03-16T17:30:50.082Z,36.35
2023-03-16T17:32:52.745Z,36.42
2023-03-16T17:34:54.351Z,37.03
2023-03-16T17:36:56.274Z,36.70
2023-03-16T17:38:57.947Z,36.30
2023-03-16T17:41:00.485Z,36.80
2023-03-16T17:43:02.074Z,36.27
2023-03-16T17:45:06.614Z,36.77
2023-03-16T17:47:15.285Z,36.79
2023-03-16T17:49:17.957Z,36.95
2023-03-16T17:51:21.291Z,37.22
2023-03-16T17:53:22.954Z,37.14
2023-03-16T17:55:24.475Z,36.61
2023-03-16T17:57:29.405Z,36.98
2023-03-16T17:59:31.047Z,37.17
2023-03-16T18:01:33.443Z,36.89
2023-03-16T18:03:36.655Z,36.69
2023-03-16T18:05:40.184Z,36.83
2023-03-16T18:07:41.749Z,36.65
2023-03-16T18:09:43.835Z,36.09
2023-03-16T18:11:48.046Z,35.98
2023-03-16T18:13:50.966Z,35.99
2023-03-16T18:15:53.212Z,36.67
2023-03-16T18:17:55.083Z,36.27
2023-03-16T18:19:58.302Z,35.97
2023-03-16T18:21:59.997Z,35.88
2023-03-16T18:24:13.820Z,35.94
2023-03-16T18:26:15.582Z,36.42
2023-03-16T18:28:18.374Z,36.58
2023-03-16T18:30:20.070Z,36.64
2023-03-16T18:32:24.999Z,36.23
2023-03-16T18:34:30.929Z,36.15
2023-03-16T18:36:36.586Z,36.29
2023-03-16T18:38:40.381Z,36.02
2023-03-16T18:40:42.048Z,36.05
2023-03-16T18:42:43.639Z,35.71
2023-03-16T18:44:45.386Z,35.67
2023-03-16T18:46:48.619Z,35.46
2023-03-16T18:48:51.409Z,36.14
2023-03-16T18:50:53.235Z,35.53
2023-03-16T18:52:56.671Z,35.58
2023-03-16T18:54:58.414Z,35.59
2023-03-16T18:57:00.210Z,35.52
2023-03-16T18:59:01.890Z,35.68
2023-03-16T19:01:03.710Z,35.53
2023-03-16T19:03:05.314Z,35.56
2023-03-16T19:05:12.350Z,35.72
2023-03-16T19:07:24.316Z,35.75
2023-03-16T19:09:29.689Z,35.57
2023-03-16T19:11:32.603Z,36.02
2023-03-16T19:13:34.132Z,35.93
2023-03-16T19:15:35.791Z,36.24
2023-03-16T19:17:37.460Z,36.11
2023-03-16T19:19:39.030Z,36.14
2023-03-16T19:21:41.026Z,36.33
2023-03-16T19:23:43.996Z,36.36
2023-03-16T19:25:47.374Z,36.47
2023-03-16T19:27:49.598Z,36.73
2023-03-16T19:29:52.982Z,36.36
2023-03-16T19:31:56.537Z,36.73
2023-03-16T19:33:58.654Z,36.65
2023-03-16T19:36:00.249Z,36.83
2023-03-16T19:38:01.931Z,37.19
2023-03-16T19:40:04.556Z,37.08
2023-03-16T19:42:19.311Z,36.51
2023-03-16T19:44:30.596Z,36.99
2023-03-16T19:46:32.178Z,36.82
2023-03-16T19:48:34.340Z,36.87
2023-03-16T19:50:35.947Z,37.51
2023-03-16T19:52:37.512Z,36.92
2023-03-16T19:54:39.206Z,36.95
2023-03-16T19:56:40.804Z,36.97
2023-03-16T19:58:46.922Z,37.03
2023-03-16T20:00:48.814Z,37.01
2023-03-16T20:02:50.586Z,37.34
2023-03-16T20:04:52.257Z,36.94
2023-03-16T20:06:54.403Z,37.41
2023-03-16T20:08:55.929Z,37.33
2023-03-16T20:11:03.847Z,37.91
2023-03-16T20:13:05.602Z,37.90
2023-03-16T20:15:14.238Z,37.84
2023-03-16T20:17:20.723Z,37.91
2023-03-16T20:19:22.510Z,37.87
2023-03-16T20:21:24.316Z,37.75
2023-03-16T20:23:27.788Z,37.70
2023-03-16T20:25:31.982Z,37.88
2023-03-16T20:27:33.568Z,37.91
2023-03-16T20:29:35.202Z,38.03
2023-03-16T20:31:38.410Z,37.87
2023-03-16T20:33:40.017Z,38.05
2023-03-16T20:35:41.648Z,38.23
2023-03-16T20:37:43.410Z,38.19
2023-03-16T20:39:45.010Z,38.18
2023-03-16T20:41:47.152Z,38.23
2023-03-16T20:43:50.220Z,37.96
2023-03-16T20:45:53.249Z,37.98
2023-03-16T20:47:56.377Z,38.17
2023-03-16T20:49:58.026Z,37.81
2023-03-16T20:52:00.037Z,37.86
2023-03-16T20:54:01.636Z,38.54
2023-03-16T20:56:03.391Z,37.80
2023-03-16T20:58:16.756Z,38.10
2023-03-16T21:00:24.004Z,37.74
2023-03-16T21:02:27.702Z,37.83
2023-03-16T21:04:30.823Z,38.05
2023-03-16T21:06:32.450Z,37.89
2023-03-16T21:08:34.029Z,37.96
2023-03-16T21:10:35.713Z,37.86
2023-03-16T21:12:46.455Z,37.80
2023-03-16T21:14:48.223Z,38.07
2023-03-16T21:16:50.422Z,37.89
2023-03-16T21:18:52.121Z,37.92
2023-03-16T21:20:55.053Z,38.10
2023-03-16T21:22:57.058Z,38.39
2023-03-16T21:24:59.064Z,39.87
2023-03-16T21:27:00.810Z,40.60
2023-03-16T21:29:07.944Z,38.73
2023-03-16T21:31:17.575Z,40.07
2023-03-16T21:33:28.164Z,41.33
2023-03-16T21:35:33.030Z,42.48
2023-03-16T21:37:35.927Z,42.54
2023-03-16T21:39:37.532Z,43.50
2023-03-16T21:41:39.102Z,43.61
2023-03-16T21:43:41.149Z,43.33
2023-03-16T21:45:43.721Z,43.03
2023-03-16T21:47:46.653Z,43.32
2023-03-16T21:49:48.228Z,41.17
2023-03-16T21:51:50.337Z,40.74
2023-03-16T21:53:53.223Z,42.12
2023-03-16T21:55:56.260Z,43.83
2023-03-16T21:57:58.849Z,43.36
2023-03-16T22:00:00.414Z,42.14
2023-03-16T22:02:02.667Z,40.68
2023-03-16T22:04:06.505Z,40.08
2023-03-16T22:06:12.474Z,40.82
2023-03-16T22:08:17.333Z,39.94
2023-03-16T22:10:20.519Z,41.94
2023-03-16T22:12:22.106Z,43.43
2023-03-16T22:14:23.687Z,40.98
2023-03-16T22:16:28.724Z,43.35
2023-03-16T22:18:35.187Z,41.50
2023-03-16T22:20:36.826Z,42.47
2023-03-16T22:22:38.380Z,42.10
2023-03-16T22:24:39.911Z,40.60
2023-03-16T22:26:42.922Z,41.26
2023-03-16T22:28:44.572Z,39.84
2023-03-16T22:30:46.877Z,39.95
2023-03-16T22:32:51.310Z,39.65
2023-03-16T22:34:55.272Z,39.57
2023-03-16T22:36:57.820Z,39.13
2023-03-16T22:39:01.905Z,39.60
2023-03-16T22:41:03.773Z,39.50
2023-03-16T22:43:12.432Z,39.50
2023-03-16T22:45:17.379Z,39.45
2023-03-16T22:47:21.760Z,39.50
2023-03-16T22:49:26.123Z,39.37
2023-03-16T22:51:31.495Z,39.54
2023-03-16T22:53:37.849Z,39.50
2023-03-16T22:55:40.180Z,39.62
2023-03-16T22:57:41.946Z,39.93
2023-03-16T22:59:47.247Z,39.52
2023-03-16T23:01:50.115Z,39.64
2023-03-16T23:03:52.309Z,39.66
2023-03-16T23:05:54.061Z,39.65
2023-03-16T23:07:56.769Z,39.66
2023-03-16T23:09:58.311Z,39.40
2023-03-16T23:11:59.954Z,39.40
2023-03-16T23:14:02.177Z,39.63
2023-03-16T23:16:14.792Z,39.36
2023-03-16T23:18:18.573Z,39.45
2023-03-16T23:20:23.644Z,39.36
2023-03-16T23:22:25.205Z,39.40
2023-03-16T23:24:26.825Z,38.96
2023-03-16T23:26:28.817Z,39.06
2023-03-16T23:28:30.392Z,39.41
2023-03-16T23:30:35.073Z,40.22
2023-03-16T23:32:38.051Z,39.39
2023-03-16T23:34:39.609Z,39.37
2023-03-16T23:36:41.493Z,40.33
2023-03-16T23:38:43.600Z,41.46
2023-03-16T23:40:46.534Z,42.37
2023-03-16T23:42:48.882Z,42.75
2023-03-16T23:44:50.476Z,42.82
2023-03-16T23:46:52.617Z,43.46
2023-03-16T23:48:58.816Z,43.78
2023-03-16T23:51:00.673Z,44.32
2023-03-16T23:53:03.335Z,44.70
2023-03-16T23:55:10.276Z,44.97
2023-03-16T23:57:12.081Z,44.73
2023-03-16T23:59:13.707Z,45.55
